Aeroporto :
LOGIN :

Iscrizione | Disclaimer

   EN    FR    IT 

 










Sommario :    VFR   VFR Marginale   IFR   IFR Intensivo   IFR Molto Intensivo
Visibilità : 
Base nubi : 
>= 8 km
>= 3000ft
5 / 8 km
1000 / 3000 ft
1500m / 5 km
500 / 1000 ft
800 / 1500m
200 / 500 ft
< 800m
< 200 ft
Simboli :   Temporali  Nebbia  Neve Forte  Precipitazioni Forti  Vento > 20 kt
SIGMETs :   Varie  Temporali  Ghiacco  Turbolenza  Onda orograficha  Ceneri Vulcaniche






- Altitudine del aeroporto : 779 ft
- Codice IATA : CMF


LFLB - Chambery / Aix-Les-Bains

ULTIMO METAR :
  • 061700Z AUTO VRB08KT 9999 FEW078/// BKN110/// BKN140/// ///CB 23/11 Q1005 NOSIG

METARs OBSOLETI :
  • 061630Z AUTO 21006KT 170V260 9999 SCT076/// BKN098/// BKN110/// ///CB 23/12 Q1005 NOSIG
  • 061600Z AUTO 19005KT 160V250 9999 FEW084/// SCT140/// ///CB 23/12 Q1005 NOSIG
  • 061530Z AUTO 22004G15KT 150V280 CAVOK 24/12 Q1005 TEMPO FEW050TCU
  • 061500Z AUTO 21008KT 170V260 CAVOK 25/13 Q1005 TEMPO FEW050TCU
  • 061430Z AUTO 19009KT 140V270 CAVOK 24/13 Q1006 TEMPO FEW050TCU
  • 061400Z AUTO 21006KT 150V260 CAVOK 25/14 Q1006 TEMPO FEW050TCU

TAF TAF LFLB
Valido dal 06 a 12 ore il 07 a 12 ore UTC


061100Z 0612/0712 26010KT 9999 FEW045 BKN060
PROB40
TEMPO 0612/0618 FEW050TCU
BECMG 0616/0618 VRB02KT
TEMPO 0618/0701 -SHRA FEW055CB
TEMPO 0701/0712 4000 SHRA BKN040TCU
PROB30
TEMPO 0701/0706 VRB15G25KT 2000 TSRA BKN009 SCT040CB



MetMap, La meteo Aeronautica in un colpo d'occhio ! - Copyright ORBIFLY Dicembre 2007 - Disclaimer

ORBIFLY MET'MAP TEAM :

Programmazione e sviluppo : Alexandra Zaïnal
Concezione : Baudouin d'Aumeries
Aiuto per la programmazione : Marc-Olivier Méhu
Supporto tecnico e logistico : Manuel Goepfert
Aiuto per la traduzione : Arnaldo La Scala

Contatto : metmap@orbifly.com




FONTI E CREDITI :

   NOAA